Time;durP1;ratioP1;P1;durP2;ratioP2;P2;SDS_P1;SDS_P2;PMS_P1;PMS_P2;Temp;Humidity;BMP_temperature;BMP_pressure;BME280_temperature;BME280_humidity;BME280_pressure;Samples;Min_cycle;Max_cycle;Signal;HPM_P1;HPM_P2
2023/10/18 00:02:16;;;;;;;18.50;10.82;;;;;;;3.90;100.00;101153.47;5027625;28;20462;-61
2023/10/18 00:04:44;;;;;;;18.95;11.13;;;;;;;3.87;100.00;101143.97;5029314;28;20052;-60
2023/10/18 00:07:13;;;;;;;13.68;10.30;;;;;;;3.84;100.00;101141.44;5039159;28;20053;-57
2023/10/18 00:09:45;;;;;;;14.15;9.75;;;;;;;3.83;100.00;101136.25;5031086;28;20408;-61
2023/10/18 00:12:16;;;;;;;16.38;10.73;;;;;;;3.83;100.00;101138.84;5027799;28;20551;-59
2023/10/18 00:14:45;;;;;;;19.70;12.00;;;;;;;3.80;100.00;101132.00;5028057;28;20060;-61
2023/10/18 00:17:13;;;;;;;24.95;10.73;;;;;;;3.78;100.00;101131.16;5028203;28;20057;-60
2023/10/18 00:19:40;;;;;;;18.30;11.10;;;;;;;3.75;100.00;101133.84;5028374;28;20115;-60
2023/10/18 00:22:12;;;;;;;15.45;11.23;;;;;;;3.74;100.00;101134.75;5027903;28;20106;-60
2023/10/18 00:24:39;;;;;;;19.15;11.80;;;;;;;3.69;100.00;101137.44;5028837;28;20049;-60
2023/10/18 00:27:09;;;;;;;15.45;11.30;;;;;;;3.68;100.00;101140.91;5035043;28;20045;-61
2023/10/18 00:29:36;;;;;;;17.02;11.57;;;;;;;3.66;100.00;101140.13;5028824;28;20068;-61
2023/10/18 00:32:04;;;;;;;15.00;10.57;;;;;;;3.63;100.00;101139.31;5031777;28;20072;-61
2023/10/18 00:34:35;;;;;;;15.32;10.15;;;;;;;3.62;100.00;101137.63;5026506;28;20077;-60
2023/10/18 00:37:04;;;;;;;17.15;11.10;;;;;;;3.62;100.00;101148.03;5034014;28;20091;-60
2023/10/18 00:39:32;;;;;;;15.85;10.90;;;;;;;3.61;100.00;101134.16;5026632;28;20049;-59
2023/10/18 00:44:54;;;;;;;;;;;;;;;3.55;100.00;101136.88;5026422;28;20041;-60
2023/10/18 00:47:23;;;;;;;15.87;10.93;;;;;;;3.51;100.00;101133.50;5028874;28;21721;-60
2023/10/18 00:49:52;;;;;;;18.83;12.05;;;;;;;3.52;100.00;101131.75;5030268;28;20062;-60
2023/10/18 00:52:23;;;;;;;15.85;10.90;;;;;;;3.51;100.00;101130.03;5026282;28;20069;-58
2023/10/18 00:54:50;;;;;;;21.30;11.65;;;;;;;3.51;100.00;101127.41;5024871;28;20477;-61
2023/10/18 00:57:20;;;;;;;16.83;12.25;;;;;;;3.51;100.00;101130.03;5027015;28;20056;-61
2023/10/18 01:00:08;;;;;;;16.02;10.88;;;;;;;3.49;100.00;101124.84;5027439;28;20084;-59
2023/10/18 01:02:39;;;;;;;17.73;11.38;;;;;;;3.48;100.00;101122.28;5024149;28;20068;-60
2023/10/18 01:05:15;;;;;;;16.85;11.50;;;;;;;3.47;100.00;101129.25;5021229;28;20708;-61
2023/10/18 01:07:45;;;;;;;16.08;11.55;;;;;;;3.45;100.00;101117.16;5030495;28;20099;-61
2023/10/18 01:10:13;;;;;;;16.83;11.48;;;;;;;3.42;100.00;101112.00;5033903;28;20053;-61
2023/10/18 01:12:41;;;;;;;17.23;11.82;;;;;;;3.42;100.00;101123.28;5026167;28;20084;-60
2023/10/18 01:15:12;;;;;;;16.40;11.70;;;;;;;3.41;100.00;101115.50;5022432;28;20088;-58
2023/10/18 01:17:43;;;;;;;15.85;11.48;;;;;;;3.40;100.00;101124.19;5022866;28;20057;-60
2023/10/18 01:20:27;;;;;;;16.42;10.43;;;;;;;3.39;100.00;101123.34;5030741;28;20598;-57
2023/10/18 01:30:20;;;;;;;18.33;10.95;;;;;;;3.31;100.00;101114.84;5027069;28;20244;-60
2023/10/18 01:33:39;;;;;;;14.32;11.10;;;;;;;3.31;100.00;101112.25;5029655;28;20603;-60
2023/10/18 01:36:56;;;;;;;16.80;10.43;;;;;;;3.32;100.00;101111.34;5025669;28;20047;-60
2023/10/18 01:39:52;;;;;;;18.23;11.90;;;;;;;3.37;100.00;101113.84;5028058;28;20029;-61
2023/10/18 01:42:45;;;;;;;16.15;10.90;;;;;;;3.36;100.00;101104.34;5050643;28;20131;-60
2023/10/18 01:48:31;;;;;;;16.48;10.30;;;;;;;3.33;100.00;101105.25;5044522;28;19928;-59
2023/10/18 01:51:01;;;;;;;16.10;10.50;;;;;;;3.33;100.00;101100.03;5033179;28;20077;-60
2023/10/18 01:53:29;;;;;;;14.80;9.98;;;;;;;3.32;100.00;101098.34;5031881;28;20060;-58
2023/10/18 01:55:57;;;;;;;16.30;11.07;;;;;;;3.29;100.00;101086.25;5032193;28;20053;-60
2023/10/18 01:58:24;;;;;;;16.15;10.57;;;;;;;3.28;100.00;101081.91;5031479;28;20139;-60
2023/10/18 02:00:53;;;;;;;14.27;10.27;;;;;;;3.27;100.00;101087.16;5027474;28;21950;-59
2023/10/18 02:03:21;;;;;;;16.20;11.02;;;;;;;3.24;100.00;101093.31;5026061;28;20148;-59
2023/10/18 02:05:49;;;;;;;18.17;11.90;;;;;;;3.21;100.00;101092.50;5030816;28;20057;-59
2023/10/18 02:08:20;;;;;;;16.25;9.75;;;;;;;3.20;100.00;101083.00;5051589;28;20045;-61
2023/10/18 02:10:53;;;;;;;14.20;10.73;;;;;;;3.19;100.00;101076.06;5028668;28;20143;-61
2023/10/18 02:13:20;;;;;;;17.50;10.98;;;;;;;3.17;100.00;101067.44;5036983;28;20072;-60
2023/10/18 02:15:48;;;;;;;14.40;10.90;;;;;;;3.15;100.00;101079.63;5027734;28;20077;-60
2023/10/18 02:18:16;;;;;;;16.15;10.15;;;;;;;3.12;100.00;101077.09;5029670;28;20164;-60
2023/10/18 02:20:53;;;;;;;17.70;10.70;;;;;;;3.10;100.00;101073.66;5033332;28;20041;-62
2023/10/18 02:23:21;;;;;;;14.95;10.07;;;;;;;3.05;100.00;101064.19;5027109;28;20049;-62
2023/10/18 02:25:49;;;;;;;28.90;11.10;;;;;;;3.05;100.00;101060.75;5021866;28;20105;-61
2023/10/18 02:28:43;;;;;;;15.60;10.27;;;;;;;3.04;100.00;101064.25;5029943;28;20479;-60
2023/10/18 02:31:10;;;;;;;18.67;10.57;;;;;;;3.02;100.00;101063.44;5027020;28;20056;-61
2023/10/18 02:33:38;;;;;;;18.45;11.32;;;;;;;2.99;100.00;101064.34;5026698;28;20184;-60
2023/10/18 02:36:12;;;;;;;16.02;10.75;;;;;;;2.99;100.00;101063.50;5029016;28;20042;-60
2023/10/18 02:38:41;;;;;;;13.43;10.68;;;;;;;2.96;100.00;101060.94;5031707;28;20104;-62
2023/10/18 02:41:21;;;;;;;17.05;10.40;;;;;;;2.93;100.00;101069.69;5026855;28;20460;-62
2023/10/18 02:43:52;;;;;;;15.93;10.77;;;;;;;2.90;100.00;101061.06;5032385;28;20181;-59
2023/10/18 02:46:24;;;;;;;15.15;10.60;;;;;;;2.88;100.00;101068.91;5030896;28;20472;-60
2023/10/18 02:48:52;;;;;;;16.75;10.38;;;;;;;2.86;100.00;101070.69;5024977;28;20084;-59
2023/10/18 02:51:24;;;;;;;16.02;10.85;;;;;;;2.85;100.00;101070.72;5029671;28;20055;-60
2023/10/18 02:53:52;;;;;;;14.32;9.98;;;;;;;2.82;100.00;101074.22;5028677;28;20072;-61
2023/10/18 02:56:33;;;;;;;19.15;9.70;;;;;;;2.81;100.00;101067.31;5030529;28;20100;-59
2023/10/18 02:59:06;;;;;;;17.08;9.55;;;;;;;2.79;100.00;101069.06;5028358;28;20451;-60
2023/10/18 03:01:36;;;;;;;13.38;9.18;;;;;;;2.78;100.00;101065.63;5031822;28;20120;-60
2023/10/18 03:04:07;;;;;;;12.88;8.95;;;;;;;2.75;100.00;101065.69;5026932;28;20644;-61
2023/10/18 03:06:36;;;;;;;16.20;8.82;;;;;;;2.73;100.00;101067.47;5029200;28;20041;-60
2023/10/18 03:09:05;;;;;;;14.75;9.40;;;;;;;2.72;100.00;101067.50;5025682;28;20137;-60
2023/10/18 03:11:32;;;;;;;14.10;9.73;;;;;;;2.70;100.00;101070.13;5024945;28;20042;-60
2023/10/18 03:14:01;;;;;;;16.08;9.35;;;;;;;2.69;100.00;101058.00;5028299;28;20054;-61
2023/10/18 03:16:54;;;;;;;14.13;9.70;;;;;;;2.69;100.00;101063.19;5029540;28;20500;-60
2023/10/18 03:19:18;;;;;;;16.75;9.77;;;;;;;2.71;100.00;101060.59;5029676;28;20073;-60
2023/10/18 03:21:50;;;;;;;11.23;9.10;;;;;;;2.69;100.00;101054.53;5028379;28;20077;-59
2023/10/18 03:24:21;;;;;;;11.63;7.95;;;;;;;2.67;100.00;101048.53;5026015;28;20049;-60
2023/10/18 03:26:48;;;;;;;13.35;9.45;;;;;;;2.65;100.00;101043.34;5022684;28;20049;-57
2023/10/18 03:29:16;;;;;;;11.98;9.13;;;;;;;2.66;100.00;101044.22;5029239;28;20711;-59
2023/10/18 03:31:44;;;;;;;13.48;9.57;;;;;;;2.65;100.00;101048.53;5025496;28;20186;-61
2023/10/18 03:34:22;;;;;;;12.10;8.95;;;;;;;2.62;100.00;101040.84;5040003;28;20045;-60
2023/10/18 03:36:51;;;;;;;14.98;9.75;;;;;;;2.62;100.00;101039.97;5027993;28;20136;-61
2023/10/18 03:39:20;;;;;;;15.43;10.30;;;;;;;2.60;100.00;101033.94;5026779;28;20069;-60
2023/10/18 03:41:50;;;;;;;14.80;10.27;;;;;;;2.59;100.00;101040.88;5022014;28;20076;-59
2023/10/18 03:44:46;;;;;;;15.35;11.05;;;;;;;2.58;100.00;101046.13;5026265;28;20132;-59
2023/10/18 03:47:14;;;;;;;16.52;11.73;;;;;;;2.54;100.00;101043.56;5025411;28;20049;-61
2023/10/18 03:49:42;;;;;;;15.38;11.57;;;;;;;2.53;100.00;101038.41;5026507;28;20054;-59
2023/10/18 03:57:28;;;;;;;18.75;13.00;;;;;;;2.43;100.00;101027.34;5030174;28;20056;-60
2023/10/18 03:59:58;;;;;;;16.15;12.38;;;;;;;2.41;100.00;101023.91;5027579;28;20493;-62
2023/10/18 04:05:00;;;;;;;21.08;13.85;;;;;;;2.37;100.00;101021.38;5026429;28;20057;-61
2023/10/18 04:07:29;;;;;;;14.55;11.98;;;;;;;2.35;100.00;101018.81;5026230;28;20080;-61
2023/10/18 04:12:27;;;;;;;18.00;13.10;;;;;;;2.31;100.00;101018.91;5031379;28;20063;-59
2023/10/18 04:15:19;;;;;;;17.13;12.55;;;;;;;2.31;100.00;101019.78;5024457;28;20359;-59
2023/10/18 04:17:42;;;;;;;19.65;14.70;;;;;;;2.30;100.00;101018.06;5025594;28;20391;-61
2023/10/18 04:20:22;;;;;;;17.20;13.65;;;;;;;2.31;100.00;101011.97;5027193;28;20079;-61
2023/10/18 04:22:50;;;;;;;15.60;13.52;;;;;;;2.32;100.00;101021.47;5021012;28;20063;-58
2023/10/18 04:25:27;;;;;;;17.95;14.13;;;;;;;2.31;100.00;101009.38;5025137;28;20071;-57
2023/10/18 04:27:54;;;;;;;18.95;12.55;;;;;;;2.31;100.00;101005.94;5023296;28;20132;-60
2023/10/18 04:30:24;;;;;;;18.23;13.77;;;;;;;2.27;100.00;100998.19;5027729;28;20136;-61
2023/10/18 04:32:59;;;;;;;17.42;12.55;;;;;;;2.28;100.00;100997.28;5019011;28;20099;-58
2023/10/18 04:35:33;;;;;;;13.53;11.67;;;;;;;2.28;100.00;101001.63;5027758;28;20543;-60
2023/10/18 04:38:03;;;;;;;18.63;12.55;;;;;;;2.27;100.00;100997.31;5024626;28;20464;-58
2023/10/18 04:40:34;;;;;;;18.88;11.60;;;;;;;2.26;100.00;100996.47;5027093;28;20579;-60
2023/10/18 04:43:02;;;;;;;13.10;10.25;;;;;;;2.28;100.00;100996.44;5028775;28;20072;-60
2023/10/18 04:45:29;;;;;;;14.00;10.43;;;;;;;2.31;100.00;100992.94;5027180;28;20080;-63
2023/10/18 04:48:14;;;;;;;15.70;10.38;;;;;;;2.33;100.00;100984.22;5021883;28;20099;-60
2023/10/18 04:50:50;;;;;;;15.20;10.48;;;;;;;2.33;100.00;100988.56;5030877;28;20053;-58
2023/10/18 04:53:23;;;;;;;15.20;10.25;;;;;;;2.32;100.00;100992.03;5029126;28;20053;-61
2023/10/18 04:55:51;;;;;;;15.40;9.82;;;;;;;2.29;100.00;100988.59;5025939;28;20053;-60
2023/10/18 04:58:19;;;;;;;12.63;10.10;;;;;;;2.29;100.00;100987.75;5027220;28;20084;-61
2023/10/18 05:00:57;;;;;;;19.33;10.27;;;;;;;2.29;100.00;100998.13;5025907;28;20151;-60
2023/10/18 05:03:30;;;;;;;15.57;9.38;;;;;;;2.28;100.00;101001.63;5021455;28;20069;-60
2023/10/18 05:05:58;;;;;;;15.40;10.63;;;;;;;2.26;100.00;101004.25;5023562;28;20518;-60
2023/10/18 05:08:30;;;;;;;15.32;9.68;;;;;;;2.25;100.00;100997.38;5032792;28;20072;-60
2023/10/18 05:13:43;;;;;;;16.83;9.60;;;;;;;2.28;100.00;100996.44;5030840;28;20077;-61
2023/10/18 05:16:11;;;;;;;23.92;9.85;;;;;;;2.31;100.00;100998.13;5029068;28;20106;-60
2023/10/18 05:18:38;;;;;;;16.10;9.73;;;;;;;2.32;100.00;100995.50;5030944;28;20715;-59
2023/10/18 05:21:08;;;;;;;12.50;9.23;;;;;;;2.32;100.00;100992.03;5029043;28;20099;-60
2023/10/18 05:23:36;;;;;;;15.40;8.75;;;;;;;2.33;100.00;100985.94;5029836;28;20403;-59
2023/10/18 05:29:00;;;;;;;11.40;9.60;;;;;;;2.31;100.00;100988.59;5026732;28;20049;-60
2023/10/18 05:41:49;;;;;;;13.02;8.55;;;;;;;2.27;100.00;101005.13;5031278;28;20089;-58
2023/10/18 05:44:17;;;;;;;13.85;8.52;;;;;;;2.27;100.00;101005.97;5023825;28;20077;-61
2023/10/18 05:46:46;;;;;;;10.52;8.05;;;;;;;2.28;100.00;101010.28;5032281;28;20515;-61
2023/10/18 05:49:15;;;;;;;11.40;9.07;;;;;;;2.30;100.00;101010.25;5028630;28;20049;-60
2023/10/18 05:51:51;;;;;;;10.77;8.20;;;;;;;2.32;100.00;101005.03;5028157;28;20145;-59
2023/10/18 05:54:22;;;;;;;12.07;8.75;;;;;;;2.35;100.00;101003.25;5031740;28;20092;-61
2023/10/18 05:56:50;;;;;;;12.60;8.80;;;;;;;2.39;100.00;101004.03;5031255;28;20099;-63
2023/10/18 06:01:58;;;;;;;17.15;8.85;;;;;;;2.47;100.00;100996.94;5031972;28;20150;-60
2023/10/18 06:04:38;;;;;;;11.13;8.07;;;;;;;2.51;100.00;101004.63;5028158;28;20061;-60
2023/10/18 06:07:13;;;;;;;13.27;8.35;;;;;;;2.54;100.00;101001.13;5029547;28;20126;-61
2023/10/18 06:09:47;;;;;;;15.10;8.75;;;;;;;2.59;100.00;100996.69;5028779;28;20080;-59
2023/10/18 06:12:22;;;;;;;12.20;8.45;;;;;;;2.63;100.00;100987.94;5027172;28;20600;-60
2023/10/18 06:14:52;;;;;;;12.43;8.90;;;;;;;2.71;100.00;100986.06;5025800;28;20188;-60
2023/10/18 06:20:24;;;;;;;16.85;9.65;;;;;;;2.87;100.00;100990.91;5026622;28;20191;-61
2023/10/18 06:23:07;;;;;;;15.27;9.35;;;;;;;2.94;100.00;100988.16;5028769;28;20053;-61
2023/10/18 06:25:37;;;;;;;13.32;8.88;;;;;;;2.99;100.00;101001.91;5024528;28;20041;-61
2023/10/18 06:28:07;;;;;;;16.77;9.98;;;;;;;3.07;100.00;101003.50;5020452;28;20085;-60
2023/10/18 06:30:41;;;;;;;13.15;9.75;;;;;;;3.14;100.00;100986.88;5025576;28;20049;-60
2023/10/18 06:33:09;;;;;;;15.32;10.25;;;;;;;3.22;100.00;100987.53;5028630;28;20053;-60
2023/10/18 06:35:50;;;;;;;15.35;10.52;;;;;;;3.30;100.00;100980.44;5023890;28;20422;-60
2023/10/18 06:38:22;;;;;;;20.10;10.85;;;;;;;3.38;100.00;100981.13;5029861;28;20057;-61
2023/10/18 06:40:53;;;;;;;13.40;9.55;;;;;;;3.50;100.00;100977.34;5029310;28;20591;-62
2023/10/18 06:43:33;;;;;;;13.13;10.23;;;;;;;3.62;100.00;100981.41;5029167;28;20073;-61
2023/10/18 06:46:00;;;;;;;16.65;10.25;;;;;;;3.71;100.00;100975.97;5026239;28;20049;-61
2023/10/18 06:48:30;;;;;;;15.88;9.73;;;;;;;3.84;100.00;100973.91;5028280;28;20053;-60
2023/10/18 06:50:59;;;;;;;15.30;9.55;;;;;;;3.93;100.00;100977.13;5026681;28;20060;-63
2023/10/18 06:53:27;;;;;;;15.82;10.13;;;;;;;4.04;100.00;100969.88;5029131;28;20064;-61
2023/10/18 06:56:06;;;;;;;20.08;10.60;;;;;;;4.13;100.00;100979.22;5026296;28;20144;-61
2023/10/18 07:01:19;;;;;;;16.48;9.95;;;;;;;4.32;100.00;100983.06;5026637;28;20127;-59
2023/10/18 07:03:48;;;;;;;18.58;10.95;;;;;;;4.42;100.00;100990.63;5029677;28;20054;-59
2023/10/18 07:06:18;;;;;;;14.98;9.52;;;;;;;4.54;100.00;100983.28;5023617;28;20045;-60
2023/10/18 07:08:49;;;;;;;19.02;9.82;;;;;;;4.68;100.00;100980.28;5029208;28;20080;-61
2023/10/18 07:11:18;;;;;;;20.20;10.02;;;;;;;4.84;100.00;100985.91;5025035;28;20140;-60
2023/10/18 07:14:00;;;;;;;33.45;10.82;;;;;;;5.00;100.00;100984.56;5025196;28;20403;-60
2023/10/18 07:21:47;;;;;;;14.88;9.07;;;;;;;5.41;100.00;100984.19;5025591;28;20058;-60
2023/10/18 07:24:17;;;;;;;16.88;9.02;;;;;;;5.54;100.00;100973.31;5025260;28;20531;-61
2023/10/18 07:26:48;;;;;;;20.35;9.25;;;;;;;5.64;100.00;100971.25;5018381;28;20361;-60
2023/10/18 07:29:16;;;;;;;16.23;8.88;;;;;;;5.73;100.00;100970.09;5031300;28;20100;-61
2023/10/18 07:31:46;;;;;;;17.02;8.63;;;;;;;5.92;100.00;100962.50;5023324;28;20058;-59
2023/10/18 07:34:17;;;;;;;21.20;9.63;;;;;;;6.01;100.00;100959.56;5025754;28;20064;-60
2023/10/18 07:36:45;;;;;;;20.23;9.15;;;;;;;6.23;100.00;100964.91;5026436;28;20049;-59
2023/10/18 07:39:16;;;;;;;12.70;9.07;;;;;;;6.44;100.00;100960.66;5030590;28;20092;-59
2023/10/18 07:41:43;;;;;;;14.65;8.23;;;;;;;6.62;100.00;100960.00;5029960;28;20053;-60
2023/10/18 07:44:11;;;;;;;15.85;8.40;;;;;;;6.76;100.00;100962.09;5028455;28;20053;-59
2023/10/18 07:46:41;;;;;;;18.83;8.68;;;;;;;6.93;100.00;100954.44;5028539;28;20145;-61
2023/10/18 07:49:15;;;;;;;21.73;9.40;;;;;;;7.09;100.00;100955.56;5024710;28;20046;-59
2023/10/18 07:51:55;;;;;;;16.57;8.60;;;;;;;7.18;100.00;100943.00;5029935;28;20056;-60
2023/10/18 07:54:24;;;;;;;18.48;8.68;;;;;;;7.33;100.00;100950.25;5022170;28;20076;-61
2023/10/18 07:56:54;;;;;;;20.52;8.23;;;;;;;7.50;100.00;100954.81;5027950;28;20109;-60
2023/10/18 07:59:28;;;;;;;14.85;8.60;;;;;;;7.58;98.01;100956.19;5026491;28;20084;-60
2023/10/18 08:02:09;;;;;;;19.58;10.13;;;;;;;7.48;98.13;100948.78;5022083;28;20049;-60
2023/10/18 08:04:37;;;;;;;17.95;10.00;;;;;;;7.72;97.73;100947.78;5025716;28;20480;-60
2023/10/18 08:07:10;;;;;;;18.38;9.68;;;;;;;7.93;97.22;100946.03;5027710;28;20412;-60
2023/10/18 08:09:42;;;;;;;18.38;10.30;;;;;;;8.09;97.35;100946.19;5024250;28;20058;-59
2023/10/18 08:15:13;;;;;;;15.07;10.75;;;;;;;8.29;95.55;100932.22;5015951;28;20135;-59
2023/10/18 08:17:44;;;;;;;14.68;10.05;;;;;;;8.40;94.09;100929.13;5027879;28;20081;-59
2023/10/18 08:20:55;;;;;;;15.57;10.73;;;;;;;8.66;93.68;100925.34;5026642;28;20154;-61
2023/10/18 08:23:19;;;;;;;14.32;10.35;;;;;;;8.85;92.01;100924.41;5028097;28;20148;-60
2023/10/18 08:25:51;;;;;;;15.77;9.93;;;;;;;8.96;91.89;100920.41;5025044;28;20085;-61
2023/10/18 08:28:19;;;;;;;12.88;9.70;;;;;;;9.15;92.30;100928.28;5026381;28;20132;-61
2023/10/18 08:33:19;;;;;;;16.80;10.20;;;;;;;9.46;90.09;100922.38;5025145;28;20080;-61
2023/10/18 08:35:46;;;;;;;13.80;9.35;;;;;;;9.42;89.04;100926.09;5024706;28;20073;-61
2023/10/18 08:38:14;;;;;;;13.73;9.68;;;;;;;9.60;89.01;100920.75;5028252;28;20458;-60
2023/10/18 08:40:42;;;;;;;12.05;8.52;;;;;;;9.69;87.78;100924.72;5026530;28;20049;-60
2023/10/18 08:43:14;;;;;;;13.88;9.63;;;;;;;9.84;87.68;100929.19;5029243;28;20088;-61
2023/10/18 08:45:49;;;;;;;14.10;9.27;;;;;;;10.00;86.76;100931.88;5028714;28;20050;-61
2023/10/18 08:48:17;;;;;;;11.23;8.02;;;;;;;10.13;86.07;100925.06;5025465;28;20089;-61
2023/10/18 08:50:45;;;;;;;11.30;8.50;;;;;;;10.43;86.69;100923.53;5026143;28;20058;-60
2023/10/18 08:53:15;;;;;;;13.60;8.52;;;;;;;10.65;85.46;100917.03;5031155;28;20504;-61
2023/10/18 08:55:43;;;;;;;13.00;8.02;;;;;;;10.73;82.81;100921.03;5029695;28;20049;-61
2023/10/18 08:58:17;;;;;;;11.45;8.48;;;;;;;10.78;81.81;100917.22;5028608;28;20065;-61
2023/10/18 09:03:24;;;;;;;11.73;8.65;;;;;;;10.86;81.62;100917.66;5026186;28;20145;-61
2023/10/18 09:06:02;;;;;;;12.07;9.15;;;;;;;11.12;81.30;100916.19;5028964;28;20267;-61
2023/10/18 09:09:00;;;;;;;15.70;8.50;;;;;;;11.18;78.93;100912.34;5027683;28;20139;-61
2023/10/18 09:11:27;;;;;;;16.02;9.07;;;;;;;11.15;78.67;100909.88;5028784;28;20484;-60
2023/10/18 09:14:07;;;;;;;10.60;9.10;;;;;;;11.28;78.56;100908.25;5020521;28;20128;-59
2023/10/18 09:16:40;;;;;;;9.55;7.53;;;;;;;11.47;78.32;100913.31;5022041;28;20056;-60
2023/10/18 09:19:08;;;;;;;11.75;7.70;;;;;;;11.62;77.80;100912.44;5028597;28;20048;-60
2023/10/18 09:24:23;;;;;;;9.65;7.18;;;;;;;11.73;74.91;100898.59;5028407;28;20107;-61
2023/10/18 09:27:41;;;;;;;9.02;6.82;;;;;;;11.86;74.68;100890.84;5028630;28;20071;-60
2023/10/18 09:30:18;;;;;;;8.73;6.95;;;;;;;11.97;73.94;100883.13;5024948;28;20052;-60
2023/10/18 09:32:46;;;;;;;10.63;6.93;;;;;;;12.10;73.45;100884.06;5025579;28;20073;-61
2023/10/18 09:35:25;;;;;;;8.70;6.18;;;;;;;12.25;73.94;100879.66;5021341;28;20536;-61
2023/10/18 09:37:53;;;;;;;8.50;5.55;;;;;;;12.44;73.19;100881.16;5026987;28;20138;-61
2023/10/18 09:40:20;;;;;;;5.85;4.93;;;;;;;12.55;72.24;100874.22;5041082;28;20091;-58
2023/10/18 09:42:50;;;;;;;8.07;5.63;;;;;;;12.52;70.83;100878.84;5028371;28;20385;-61
2023/10/18 09:45:20;;;;;;;9.50;5.00;;;;;;;12.66;71.09;100878.84;5032073;28;20404;-61
2023/10/18 09:50:47;;;;;;;6.50;5.18;;;;;;;12.88;70.97;100873.03;5029356;28;20069;-60
2023/10/18 09:53:21;;;;;;;7.15;4.65;;;;;;;12.87;70.63;100869.53;5028326;28;20053;-59
2023/10/18 09:55:50;;;;;;;6.40;4.97;;;;;;;12.99;69.67;100869.69;5029158;28;20539;-60
2023/10/18 09:58:18;;;;;;;5.28;4.72;;;;;;;13.11;68.54;100877.69;5027870;28;20092;-59
2023/10/18 10:00:56;;;;;;;8.52;4.85;;;;;;;13.07;64.45;100873.53;5026765;28;20076;-60
2023/10/18 10:03:24;;;;;;;6.43;4.80;;;;;;;13.34;64.90;100868.25;5025878;28;20556;-60
2023/10/18 10:05:52;;;;;;;7.30;5.30;;;;;;;13.45;64.79;100870.19;5027625;28;20141;-58
2023/10/18 10:08:19;;;;;;;6.00;4.40;;;;;;;13.71;64.40;100870.22;5028623;28;20057;-59
2023/10/18 10:10:50;;;;;;;7.47;5.00;;;;;;;13.56;62.17;100864.19;5028161;28;20085;-59
2023/10/18 10:13:18;;;;;;;8.05;5.13;;;;;;;13.60;61.98;100863.03;5026076;28;20077;-60
2023/10/18 10:15:49;;;;;;;7.78;5.78;;;;;;;13.53;61.90;100865.22;5029340;28;20488;-60
2023/10/18 10:18:18;;;;;;;6.63;5.10;;;;;;;13.73;62.32;100861.22;5028752;28;20077;-59
2023/10/18 10:20:47;;;;;;;10.00;5.07;;;;;;;13.76;61.35;100857.53;5026454;28;20091;-61
2023/10/18 10:23:16;;;;;;;11.07;4.68;;;;;;;13.98;61.66;100847.16;5027904;28;20050;-60
2023/10/18 10:26:22;;;;;;;5.43;4.88;;;;;;;14.22;60.18;100851.69;5026647;28;20420;-59
2023/10/18 10:29:33;;;;;;;9.38;5.20;;;;;;;14.33;60.13;100851.78;5027217;28;20132;-60
2023/10/18 10:31:59;;;;;;;12.23;4.88;;;;;;;14.60;60.27;100851.63;5027010;28;20535;-60
2023/10/18 10:34:29;;;;;;;5.88;5.07;;;;;;;14.69;59.49;100846.50;5028173;28;20053;-60
2023/10/18 10:37:05;;;;;;;7.85;4.85;;;;;;;15.03;59.72;100857.28;5027469;28;20169;-60
2023/10/18 10:39:36;;;;;;;13.52;5.15;;;;;;;15.13;57.42;100852.13;5028603;28;20591;-59
2023/10/18 10:42:09;;;;;;;5.65;4.80;;;;;;;14.99;56.50;100853.16;5027163;28;20049;-60
2023/10/18 10:44:56;;;;;;;5.60;4.68;;;;;;;15.00;56.47;100841.63;5025329;28;20140;-60
2023/10/18 10:47:30;;;;;;;7.40;4.90;;;;;;;14.86;55.61;100834.69;5028109;28;20088;-60
2023/10/18 10:49:59;;;;;;;6.95;4.50;;;;;;;15.06;56.67;100824.41;5025245;28;20052;-61
2023/10/18 10:52:29;;;;;;;6.45;4.45;;;;;;;15.62;55.88;100822.75;5026968;28;20420;-58
2023/10/18 10:55:03;;;;;;;6.03;4.38;;;;;;;15.88;54.71;100817.28;5022015;28;20106;-61
2023/10/18 10:57:43;;;;;;;8.18;5.40;;;;;;;16.02;53.93;100809.06;5025962;28;20096;-60
2023/10/18 11:03:06;;;;;;;3.72;2.67;;;;;;;16.26;48.63;100803.63;5025361;28;20136;-59
2023/10/18 11:05:37;;;;;;;7.15;3.45;;;;;;;16.33;48.40;100804.81;5026752;28;20145;-60
2023/10/18 11:08:12;;;;;;;4.10;3.13;;;;;;;16.76;49.51;100801.38;5027432;28;20090;-61
2023/10/18 11:10:39;;;;;;;3.53;3.10;;;;;;;16.98;49.65;100796.97;5029687;28;20152;-60
2023/10/18 11:13:08;;;;;;;5.50;3.50;;;;;;;17.34;49.36;100801.00;5031670;28;20132;-58
2023/10/18 11:15:36;;;;;;;5.63;3.35;;;;;;;17.79;48.53;100800.75;5028947;28;20053;-60
2023/10/18 11:18:17;;;;;;;6.65;2.72;;;;;;;17.98;47.22;100800.00;5029009;28;20049;-60
2023/10/18 11:21:05;;;;;;;5.07;2.45;;;;;;;18.09;45.49;100784.75;5022622;28;20483;-63
2023/10/18 11:23:37;;;;;;;3.53;2.15;;;;;;;17.95;43.98;100787.78;5025067;28;20144;-59
2023/10/18 11:26:09;;;;;;;3.67;2.35;;;;;;;17.71;43.54;100772.94;5023791;28;20170;-59
2023/10/18 11:28:37;;;;;;;7.05;2.50;;;;;;;17.97;43.54;100780.50;5031497;28;20176;-60
2023/10/18 11:31:05;;;;;;;5.72;2.58;;;;;;;18.82;43.39;100774.69;5031837;28;20109;-59
2023/10/18 11:36:20;;;;;;;4.03;2.55;;;;;;;20.23;39.99;100775.59;5022903;28;20121;-58
2023/10/18 11:41:34;;;;;;;4.60;2.30;;;;;;;22.47;36.09;100766.25;5024682;28;20435;-60
2023/10/18 11:44:09;;;;;;;3.38;2.33;;;;;;;23.65;33.79;100764.09;5026906;28;20080;-60
2023/10/18 11:46:47;;;;;;;5.10;2.30;;;;;;;24.37;32.65;100766.69;5014296;28;20427;-61
2023/10/18 11:49:19;;;;;;;3.13;2.00;;;;;;;24.93;30.61;100759.22;5025456;28;20361;-58
2023/10/18 11:51:51;;;;;;;3.15;2.25;;;;;;;25.96;30.00;100763.97;5027024;28;20487;-56
2023/10/18 11:54:29;;;;;;;5.18;2.75;;;;;;;28.43;26.92;100753.16;5026293;28;20081;-59
2023/10/18 11:56:57;;;;;;;5.05;2.40;;;;;;;30.57;24.73;100752.66;5023623;28;20045;-58
2023/10/18 11:59:25;;;;;;;4.20;2.40;;;;;;;31.71;22.96;100751.50;5024749;28;20156;-58
2023/10/18 12:01:57;;;;;;;4.13;2.97;;;;;;;31.20;20.82;100752.59;5022718;28;20128;-59
2023/10/18 12:04:28;;;;;;;3.72;2.55;;;;;;;31.93;20.97;100745.66;5025309;28;20046;-60
2023/10/18 12:06:57;;;;;;;3.05;2.42;;;;;;;32.83;21.58;100736.63;5023293;28;20092;-57
2023/10/18 12:09:25;;;;;;;4.32;2.65;;;;;;;32.85;20.29;100731.78;5025230;28;20048;-60
2023/10/18 12:11:53;;;;;;;3.20;2.53;;;;;;;31.50;21.20;100731.00;5025596;28;20052;-60
2023/10/18 12:14:22;;;;;;;6.30;3.20;;;;;;;30.95;21.59;100730.03;5023976;28;20148;-61
2023/10/18 12:16:52;;;;;;;5.15;2.78;;;;;;;31.06;21.66;100729.31;5023863;28;20080;-58
2023/10/18 12:19:19;;;;;;;3.45;2.28;;;;;;;32.04;21.36;100723.06;5025771;28;20128;-59
2023/10/18 12:21:54;;;;;;;5.00;2.88;;;;;;;33.54;19.51;100721.97;5025352;28;20077;-59
2023/10/18 12:24:22;;;;;;;3.17;2.70;;;;;;;34.53;18.54;100720.97;5026603;28;20148;-58
2023/10/18 12:26:54;;;;;;;3.50;3.05;;;;;;;34.94;18.35;100706.91;5026876;28;20054;-57
2023/10/18 12:29:26;;;;;;;3.35;2.80;;;;;;;34.28;18.56;100708.50;5025647;28;20144;-60
2023/10/18 12:31:57;;;;;;;3.83;3.47;;;;;;;32.78;18.87;100701.88;5025400;28;20144;-59
2023/10/18 12:34:30;;;;;;;4.50;3.67;;;;;;;34.56;18.31;100701.34;5028578;28;20136;-60
2023/10/18 12:37:01;;;;;;;5.03;4.13;;;;;;;34.98;17.30;100696.31;5021734;28;20078;-58
2023/10/18 12:39:34;;;;;;;3.65;3.30;;;;;;;35.38;16.94;100696.09;5026831;28;20050;-60
2023/10/18 12:42:04;;;;;;;4.50;4.10;;;;;;;37.12;15.74;100686.97;5027786;28;20072;-60
2023/10/18 12:44:31;;;;;;;6.95;4.13;;;;;;;37.54;15.52;100692.44;5025715;28;20080;-61
2023/10/18 12:47:09;;;;;;;4.65;4.20;;;;;;;39.02;15.38;100687.19;5022374;28;20419;-60
2023/10/18 12:49:43;;;;;;;5.55;4.97;;;;;;;37.96;14.35;100686.00;5032429;28;20113;-61
2023/10/18 12:55:00;;;;;;;6.43;5.93;;;;;;;39.21;13.42;100670.94;5025104;28;20081;-61
2023/10/18 12:57:32;;;;;;;6.40;5.90;;;;;;;36.14;15.23;100666.09;5026305;28;20088;-59
2023/10/18 13:00:16;;;;;;;5.70;5.20;;;;;;;37.36;15.25;100659.91;5026401;28;20054;-60